Time;durP1;ratioP1;P1;durP2;ratioP2;P2;SDS_P1;SDS_P2;PMS_P1;PMS_P2;Temp;Humidity;BMP_temperature;BMP_pressure;BME280_temperature;BME280_humidity;BME280_pressure;Samples;Min_cycle;Max_cycle;Signal;HPM_P1;HPM_P2
2023/07/13 00:00:56;;;;;;;4.63;1.47;;;20.70;72.70;;;;;;5019866;28;20807;-72
2023/07/13 00:03:41;;;;;;;4.90;1.83;;;20.80;70.90;;;;;;5022894;28;20624;-72
2023/07/13 00:06:30;;;;;;;4.43;1.53;;;20.80;70.50;;;;;;5025628;28;20423;-72
2023/07/13 00:09:16;;;;;;;7.77;1.60;;;20.70;75.20;;;;;;5024920;28;20468;-72
2023/07/13 00:12:03;;;;;;;6.77;1.70;;;20.70;75.20;;;;;;5025334;28;20686;-72
2023/07/13 00:14:50;;;;;;;5.27;1.70;;;20.70;81.00;;;;;;5026076;28;20423;-72
2023/07/13 00:17:35;;;;;;;3.77;1.40;;;20.60;85.30;;;;;;5028089;28;20964;-72
2023/07/13 00:20:22;;;;;;;2.57;1.40;;;20.60;86.60;;;;;;5024383;28;20452;-72
2023/07/13 00:23:07;;;;;;;3.13;1.70;;;20.50;83.10;;;;;;5025521;28;20564;-72
2023/07/13 00:25:53;;;;;;;2.83;1.47;;;20.40;85.50;;;;;;5031290;28;20436;-72
2023/07/13 00:28:41;;;;;;;6.17;1.80;;;20.30;84.10;;;;;;5025701;28;20608;-72
2023/07/13 00:31:27;;;;;;;3.47;1.70;;;20.30;85.70;;;;;;5021388;28;20816;-72
2023/07/13 00:34:12;;;;;;;4.30;1.77;;;20.10;81.70;;;;;;5026273;28;20477;-72
2023/07/13 00:36:58;;;;;;;4.40;2.03;;;20.10;86.90;;;;;;5029169;28;20446;-72
2023/07/13 00:39:43;;;;;;;6.80;2.17;;;20.10;87.30;;;;;;5025606;28;20431;-72
2023/07/13 00:42:29;;;;;;;4.67;1.73;;;20.00;90.00;;;;;;5019743;28;20445;-72
2023/07/13 00:45:52;;;;;;;6.27;1.90;;;19.90;89.20;;;;;;5022245;28;20453;-72
2023/07/13 00:48:39;;;;;;;3.40;1.47;;;19.80;88.30;;;;;;5024915;28;20792;-72
2023/07/13 00:51:31;;;;;;;3.73;1.50;;;19.80;91.20;;;;;;5025710;28;20474;-72
2023/07/13 00:54:23;;;;;;;3.60;1.80;;;19.80;83.80;;;;;;5018492;28;20482;-72
2023/07/13 00:57:13;;;;;;;3.27;1.67;;;19.80;85.70;;;;;;5024790;28;20563;-72
2023/07/13 01:00:06;;;;;;;6.00;1.87;;;19.80;87.90;;;;;;5025084;28;20453;-73
2023/07/13 01:02:51;;;;;;;7.33;1.97;;;19.80;88.90;;;;;;5021459;28;20889;-72
2023/07/13 01:05:39;;;;;;;4.13;1.37;;;19.70;88.80;;;;;;5028298;28;20575;-72
2023/07/13 01:08:24;;;;;;;3.50;1.93;;;19.80;88.10;;;;;;5025262;28;20516;-72
2023/07/13 01:11:09;;;;;;;4.63;1.83;;;19.80;90.00;;;;;;5018734;28;20499;-72
2023/07/13 01:13:55;;;;;;;4.70;1.87;;;19.80;88.80;;;;;;5022575;28;20979;-72
2023/07/13 01:16:43;;;;;;;4.23;1.63;;;19.70;86.10;;;;;;5021453;28;20444;-72
2023/07/13 01:19:36;;;;;;;4.03;1.90;;;19.70;87.40;;;;;;5024428;28;20441;-72
2023/07/13 01:22:26;;;;;;;3.33;1.90;;;19.50;89.70;;;;;;5023914;28;20435;-72
2023/07/13 01:25:11;;;;;;;4.53;1.83;;;19.50;89.40;;;;;;5022210;28;20419;-72
2023/07/13 01:27:57;;;;;;;5.20;2.00;;;19.40;90.80;;;;;;5023668;28;20434;-72
2023/07/13 01:30:45;;;;;;;3.63;1.87;;;19.30;91.00;;;;;;5025166;28;20422;-72
2023/07/13 01:33:31;;;;;;;5.30;3.40;;;19.20;90.50;;;;;;5025125;28;20468;-73
2023/07/13 01:36:16;;;;;;;3.17;1.90;;;19.10;91.90;;;;;;5025301;28;20803;-72
2023/07/13 01:39:03;;;;;;;10.13;2.10;;;19.00;92.90;;;;;;5019253;28;20826;-72
2023/07/13 01:41:49;;;;;;;3.87;2.10;;;19.00;94.40;;;;;;5025645;28;20576;-72
2023/07/13 01:44:34;;;;;;;3.20;1.63;;;18.90;93.20;;;;;;5021475;28;20553;-72
2023/07/13 01:47:20;;;;;;;7.07;2.17;;;18.90;94.80;;;;;;5023174;28;20459;-72
2023/07/13 01:50:06;;;;;;;6.73;2.70;;;18.70;94.40;;;;;;5031008;28;20444;-72
2023/07/13 01:52:52;;;;;;;6.33;2.03;;;18.70;95.10;;;;;;5018710;28;20771;-72
2023/07/13 01:55:39;;;;;;;5.00;1.80;;;18.60;95.40;;;;;;5020895;28;20941;-72
2023/07/13 01:58:25;;;;;;;3.40;1.90;;;18.40;96.30;;;;;;5024315;28;20836;-72
2023/07/13 02:01:10;;;;;;;5.23;1.80;;;18.30;97.70;;;;;;5022477;28;20776;-72
2023/07/13 02:03:56;;;;;;;6.07;2.30;;;18.10;99.00;;;;;;5023792;28;20459;-72
2023/07/13 02:06:41;;;;;;;6.30;2.00;;;18.10;99.90;;;;;;5022129;28;21010;-72
2023/07/13 02:09:26;;;;;;;8.43;2.10;;;18.10;99.90;;;;;;5019831;28;20442;-72
2023/07/13 02:12:13;;;;;;;3.83;2.20;;;17.90;99.90;;;;;;5022581;28;20420;-72
2023/07/13 02:14:59;;;;;;;4.50;2.00;;;17.90;99.90;;;;;;5026702;28;20437;-72
2023/07/13 02:17:45;;;;;;;4.47;2.23;;;17.90;99.90;;;;;;5022131;28;20546;-72
2023/07/13 02:20:30;;;;;;;4.60;3.07;;;17.80;99.90;;;;;;5022070;28;20477;-72
2023/07/13 02:23:15;;;;;;;4.60;2.70;;;17.90;99.90;;;;;;5023930;28;21064;-72
2023/07/13 02:26:03;;;;;;;4.80;2.50;;;17.70;99.90;;;;;;5021194;28;20412;-72
2023/07/13 02:28:49;;;;;;;5.80;2.83;;;17.60;99.90;;;;;;5024145;28;21056;-72
2023/07/13 02:31:35;;;;;;;4.40;2.40;;;17.60;99.90;;;;;;5021045;28;20432;-72
2023/07/13 02:34:20;;;;;;;4.50;2.57;;;17.60;99.90;;;;;;5022624;28;21071;-72
2023/07/13 02:37:06;;;;;;;4.27;2.73;;;17.40;99.90;;;;;;5022460;28;20431;-72
2023/07/13 02:39:52;;;;;;;4.30;2.27;;;17.30;99.90;;;;;;5016981;28;20420;-72
2023/07/13 02:42:37;;;;;;;4.67;2.67;;;17.30;99.90;;;;;;5020358;28;20442;-72
2023/07/13 02:45:24;;;;;;;4.13;2.00;;;17.20;99.90;;;;;;5022458;28;20427;-72
2023/07/13 02:48:10;;;;;;;9.93;2.23;;;17.20;99.90;;;;;;5022771;28;20412;-73
2023/07/13 02:50:55;;;;;;;3.70;1.87;;;17.20;99.90;;;;;;5020939;28;20448;-72
2023/07/13 02:53:41;;;;;;;4.50;2.37;;;17.20;99.90;;;;;;5023213;28;20465;-72
2023/07/13 02:56:29;;;;;;;5.60;2.90;;;17.20;99.90;;;;;;5023360;28;20527;-72
2023/07/13 02:59:14;;;;;;;10.27;2.70;;;17.20;99.90;;;;;;5021555;28;20860;-72
2023/07/13 03:02:01;;;;;;;5.23;2.17;;;17.10;99.90;;;;;;5022186;28;20423;-72
2023/07/13 03:04:47;;;;;;;4.87;2.73;;;17.10;99.90;;;;;;5024072;28;20991;-72
2023/07/13 03:07:32;;;;;;;3.90;2.10;;;17.00;99.90;;;;;;5016825;28;20467;-72
2023/07/13 03:10:18;;;;;;;5.20;2.50;;;17.00;99.90;;;;;;5023317;28;20441;-72
2023/07/13 03:13:04;;;;;;;3.27;2.00;;;17.00;99.90;;;;;;5019533;28;20468;-72
2023/07/13 03:15:49;;;;;;;3.70;2.00;;;17.20;99.90;;;;;;5021128;28;20433;-72
2023/07/13 03:18:37;;;;;;;4.93;2.30;;;17.40;99.90;;;;;;5023776;28;20477;-72
2023/07/13 03:21:22;;;;;;;3.33;2.00;;;17.50;99.90;;;;;;5024639;28;20423;-73
2023/07/13 03:24:08;;;;;;;9.70;2.47;;;17.50;99.90;;;;;;5020142;28;20460;-72
2023/07/13 03:26:53;;;;;;;5.60;2.53;;;17.50;99.90;;;;;;5017755;28;20539;-72
2023/07/13 03:29:39;;;;;;;3.90;1.93;;;17.50;99.90;;;;;;5024287;28;20440;-72
2023/07/13 03:32:24;;;;;;;3.20;2.17;;;17.40;99.90;;;;;;5019482;28;20452;-72
2023/07/13 03:35:11;;;;;;;4.80;2.60;;;17.20;99.90;;;;;;5024591;28;20488;-72
2023/07/13 03:37:57;;;;;;;6.60;2.73;;;16.90;99.90;;;;;;5022189;28;20612;-72
2023/07/13 03:40:43;;;;;;;5.90;3.17;;;16.80;99.90;;;;;;5021187;28;20440;-73
2023/07/13 03:43:28;;;;;;;5.53;2.90;;;16.70;99.90;;;;;;5027191;28;20467;-72
2023/07/13 03:46:14;;;;;;;5.17;2.63;;;16.60;99.90;;;;;;5024163;28;20415;-72
2023/07/13 03:49:00;;;;;;;3.47;2.40;;;16.40;99.90;;;;;;5021427;28;20412;-72
2023/07/13 03:51:47;;;;;;;5.73;2.53;;;16.40;99.90;;;;;;5022586;28;20419;-72
2023/07/13 03:54:32;;;;;;;7.30;2.40;;;16.50;99.90;;;;;;5027759;28;20588;-72
2023/07/13 03:57:19;;;;;;;4.63;2.70;;;16.60;99.90;;;;;;5024146;28;20448;-72
2023/07/13 04:00:06;;;;;;;4.63;2.70;;;16.80;99.90;;;;;;5022759;28;20461;-72
2023/07/13 04:02:52;;;;;;;5.33;2.97;;;16.90;99.90;;;;;;5022773;28;20475;-72
2023/07/13 04:05:40;;;;;;;3.53;2.40;;;17.10;99.90;;;;;;5025289;28;20503;-72
2023/07/13 04:08:27;;;;;;;7.83;2.43;;;17.00;99.90;;;;;;5025583;28;20445;-72
2023/07/13 04:11:12;;;;;;;5.83;2.80;;;16.90;99.90;;;;;;5018616;28;20445;-72
2023/07/13 04:13:58;;;;;;;5.07;2.70;;;16.80;99.90;;;;;;5023857;28;20956;-72
2023/07/13 04:16:44;;;;;;;6.20;2.70;;;16.70;99.90;;;;;;5022386;28;20491;-72
2023/07/13 04:19:29;;;;;;;4.23;3.07;;;16.60;99.90;;;;;;5026538;28;20831;-72
2023/07/13 04:22:14;;;;;;;6.53;3.10;;;16.50;99.90;;;;;;5024974;28;20788;-73
2023/07/13 04:25:01;;;;;;;4.93;2.30;;;16.50;99.90;;;;;;5022808;28;20605;-72
2023/07/13 04:27:47;;;;;;;7.43;2.70;;;16.50;99.90;;;;;;5020624;28;20416;-72
2023/07/13 04:30:32;;;;;;;8.33;2.60;;;16.50;99.90;;;;;;5022957;28;20955;-72
2023/07/13 04:33:22;;;;;;;5.13;2.47;;;16.60;99.90;;;;;;5026066;28;20447;-73
2023/07/13 04:36:09;;;;;;;4.80;2.33;;;16.60;99.90;;;;;;5024170;28;20419;-73
2023/07/13 04:38:55;;;;;;;3.00;2.10;;;16.80;99.90;;;;;;5021774;28;20524;-73
2023/07/13 04:41:42;;;;;;;4.00;2.97;;;16.90;99.90;;;;;;5027698;28;20501;-73
2023/07/13 04:44:27;;;;;;;4.87;2.30;;;17.00;99.90;;;;;;5023759;28;20956;-72
2023/07/13 04:47:12;;;;;;;3.13;2.50;;;17.00;99.90;;;;;;5019137;28;20423;-73
2023/07/13 04:49:58;;;;;;;3.30;2.47;;;17.00;99.90;;;;;;5024825;28;20445;-72
2023/07/13 04:52:43;;;;;;;12.73;4.10;;;17.00;99.90;;;;;;5022819;28;20468;-73
2023/07/13 04:55:30;;;;;;;6.53;2.93;;;17.10;99.90;;;;;;5021208;28;20523;-73
2023/07/13 04:58:17;;;;;;;5.40;2.73;;;17.20;99.90;;;;;;5025077;28;20454;-72
2023/07/13 05:01:03;;;;;;;6.90;2.60;;;17.30;99.90;;;;;;5023353;28;20531;-73
2023/07/13 05:03:48;;;;;;;6.83;2.40;;;17.30;99.90;;;;;;5024236;28;20485;-73
2023/07/13 05:06:34;;;;;;;4.63;2.40;;;17.30;99.90;;;;;;5025934;28;20461;-73
2023/07/13 05:09:20;;;;;;;3.77;2.10;;;17.30;99.90;;;;;;5022910;28;20415;-72
2023/07/13 05:12:06;;;;;;;3.97;2.70;;;17.50;99.90;;;;;;5026096;28;20477;-73
2023/07/13 05:14:53;;;;;;;4.10;2.97;;;17.60;99.90;;;;;;5024275;28;20464;-73
2023/07/13 05:17:40;;;;;;;4.00;2.67;;;17.70;99.90;;;;;;5023108;28;20443;-73
2023/07/13 05:20:25;;;;;;;6.40;2.77;;;17.80;99.90;;;;;;5020320;28;20427;-73
2023/07/13 05:23:10;;;;;;;4.23;2.60;;;17.80;99.90;;;;;;5023321;28;20888;-73
2023/07/13 05:25:56;;;;;;;5.60;2.67;;;18.00;99.90;;;;;;5023853;28;20456;-73
2023/07/13 05:28:42;;;;;;;6.50;2.80;;;17.90;99.90;;;;;;5021460;28;20547;-73
2023/07/13 05:31:28;;;;;;;3.43;1.90;;;17.90;99.90;;;;;;5024130;28;20436;-73
2023/07/13 05:34:14;;;;;;;5.47;2.50;;;18.00;99.90;;;;;;5021125;28;20485;-73
2023/07/13 05:36:59;;;;;;;4.97;3.23;;;18.10;99.90;;;;;;5024756;28;20969;-73
2023/07/13 05:39:45;;;;;;;6.40;2.87;;;18.10;99.90;;;;;;5023101;28;20822;-73
2023/07/13 05:42:32;;;;;;;6.17;2.63;;;18.30;99.90;;;;;;5026800;28;20415;-73
2023/07/13 05:45:17;;;;;;;6.57;3.23;;;18.30;99.90;;;;;;5025521;28;20418;-73
2023/07/13 05:48:04;;;;;;;5.67;2.30;;;18.40;99.90;;;;;;5022563;28;20445;-73
2023/07/13 05:50:50;;;;;;;5.43;2.70;;;18.50;99.90;;;;;;5023098;28;20411;-73
2023/07/13 05:53:35;;;;;;;5.50;2.63;;;18.70;99.90;;;;;;5027303;28;20484;-73
2023/07/13 05:56:20;;;;;;;6.23;3.10;;;18.80;99.90;;;;;;5024443;28;20444;-73
2023/07/13 05:59:06;;;;;;;6.10;2.80;;;19.00;99.90;;;;;;5023824;28;20474;-73
2023/07/13 06:01:52;;;;;;;9.77;3.20;;;19.10;99.90;;;;;;5017138;28;20457;-73
2023/07/13 06:04:38;;;;;;;9.67;2.20;;;19.20;99.90;;;;;;5027933;28;20420;-73
2023/07/13 06:07:24;;;;;;;3.10;2.23;;;19.30;99.90;;;;;;5026620;28;20425;-73
2023/07/13 06:10:10;;;;;;;4.97;2.47;;;19.40;99.90;;;;;;5023196;28;20416;-73
2023/07/13 06:12:56;;;;;;;5.17;2.37;;;19.40;99.90;;;;;;5025428;28;20492;-73
2023/07/13 06:15:41;;;;;;;4.67;2.40;;;19.40;99.90;;;;;;5020956;28;20413;-72
2023/07/13 06:18:27;;;;;;;5.40;1.93;;;19.40;99.90;;;;;;5023500;28;20519;-73
2023/07/13 06:21:16;;;;;;;6.87;2.50;;;19.30;99.90;;;;;;5018331;28;20431;-73
2023/07/13 06:24:02;;;;;;;5.30;2.60;;;19.40;99.90;;;;;;5022495;28;20516;-73
2023/07/13 06:26:47;;;;;;;9.07;2.33;;;19.40;99.90;;;;;;5023546;28;20435;-73
2023/07/13 06:29:33;;;;;;;3.50;2.23;;;19.60;99.90;;;;;;5025149;28;20412;-73
2023/07/13 06:32:18;;;;;;;9.23;2.37;;;19.70;99.90;;;;;;5020474;28;20419;-73
2023/07/13 06:35:05;;;;;;;6.87;2.50;;;19.80;99.90;;;;;;5024668;28;20597;-73
2023/07/13 06:37:52;;;;;;;7.60;1.90;;;19.90;99.90;;;;;;5024499;28;20515;-73
2023/07/13 06:40:37;;;;;;;3.40;1.73;;;20.10;99.90;;;;;;5023456;28;20482;-73
2023/07/13 06:43:24;;;;;;;8.83;2.23;;;20.20;97.00;;;;;;5019562;28;20465;-73
2023/07/13 06:46:10;;;;;;;3.20;1.70;;;20.30;96.40;;;;;;5023341;28;20615;-73
2023/07/13 06:48:56;;;;;;;5.07;1.97;;;20.40;94.70;;;;;;5021399;28;20836;-73
2023/07/13 06:51:42;;;;;;;6.37;1.70;;;20.50;82.90;;;;;;5019770;28;20461;-73
2023/07/13 06:54:29;;;;;;;4.23;1.90;;;20.50;76.30;;;;;;5024156;28;20515;-73
2023/07/13 06:57:14;;;;;;;5.10;1.87;;;20.30;73.00;;;;;;5023480;28;20825;-73
2023/07/13 07:00:00;;;;;;;4.30;1.90;;;20.40;74.30;;;;;;5021588;28;21007;-73
2023/07/13 07:02:46;;;;;;;3.90;1.70;;;20.30;79.50;;;;;;5025082;28;20437;-73
2023/07/13 07:05:31;;;;;;;5.53;1.60;;;20.20;70.00;;;;;;5019942;28;20422;-73
2023/07/13 07:08:17;;;;;;;6.93;1.80;;;20.20;66.70;;;;;;5024201;28;20423;-73
2023/07/13 07:11:03;;;;;;;2.67;1.10;;;20.30;58.80;;;;;;5027984;28;20962;-73
2023/07/13 07:13:50;;;;;;;6.07;1.30;;;20.30;51.30;;;;;;5021680;28;20473;-76
2023/07/13 07:16:35;;;;;;;3.87;1.60;;;20.40;52.70;;;;;;5024129;28;20439;-73
2023/07/13 07:19:21;;;;;;;3.50;1.20;;;20.40;50.20;;;;;;5026933;28;20475;-73
2023/07/13 07:22:06;;;;;;;5.60;1.40;;;20.50;51.20;;;;;;5019539;28;20547;-73
2023/07/13 07:24:51;;;;;;;5.73;1.40;;;20.60;52.50;;;;;;5027908;28;20449;-73
2023/07/13 07:27:38;;;;;;;5.10;1.70;;;20.70;49.60;;;;;;5030559;28;20995;-73
2023/07/13 07:30:24;;;;;;;2.87;1.20;;;20.70;45.80;;;;;;5019993;28;20466;-73
2023/07/13 07:33:09;;;;;;;10.73;1.10;;;20.80;45.70;;;;;;5021661;28;20442;-73
2023/07/13 07:35:55;;;;;;;7.50;1.20;;;20.90;45.60;;;;;;5015220;28;20557;-73
2023/07/13 07:38:40;;;;;;;7.67;1.60;;;21.00;52.40;;;;;;5017634;28;20509;-73
2023/07/13 07:41:26;;;;;;;66.67;17.50;;;21.20;59.60;;;;;;5017148;28;20528;-73
2023/07/13 07:44:13;;;;;;;5.93;1.77;;;21.40;62.10;;;;;;5022969;28;20566;-72
2023/07/13 07:46:58;;;;;;;13.67;2.10;;;21.40;49.80;;;;;;5019910;28;20460;-73
2023/07/13 07:49:44;;;;;;;6.27;1.63;;;21.50;49.40;;;;;;5020764;28;20442;-73
2023/07/13 07:52:29;;;;;;;7.73;1.80;;;21.60;55.00;;;;;;5017464;28;20444;-73
2023/07/13 07:55:15;;;;;;;5.93;3.30;;;21.80;50.30;;;;;;5023569;28;20445;-72
2023/07/13 07:58:00;;;;;;;6.07;1.80;;;21.90;50.40;;;;;;5026920;28;20440;-72
2023/07/13 08:00:47;;;;;;;4.70;1.50;;;21.80;45.80;;;;;;5021097;28;20472;-72
2023/07/13 08:03:33;;;;;;;9.07;2.53;;;21.80;53.50;;;;;;5024201;28;20631;-72
2023/07/13 08:06:19;;;;;;;2.93;1.30;;;21.80;45.40;;;;;;5021298;28;20439;-73
2023/07/13 08:09:04;;;;;;;3.60;1.60;;;21.70;46.30;;;;;;5024147;28;20659;-73
2023/07/13 08:11:51;;;;;;;7.90;2.13;;;21.70;46.30;;;;;;5021693;28;21628;-73
2023/07/13 08:14:38;;;;;;;8.30;1.50;;;21.80;47.50;;;;;;5025686;28;20447;-73
2023/07/13 08:17:25;;;;;;;6.87;2.17;;;21.90;44.60;;;;;;5020191;28;20957;-72
2023/07/13 08:20:11;;;;;;;8.57;2.00;;;21.90;49.90;;;;;;5021339;28;20451;-73
2023/07/13 08:22:56;;;;;;;11.43;2.10;;;22.00;47.10;;;;;;5026081;28;20471;-72
2023/07/13 08:25:42;;;;;;;6.90;2.00;;;22.00;41.70;;;;;;5018242;28;21519;-72
2023/07/13 08:28:27;;;;;;;7.83;2.10;;;22.00;44.10;;;;;;5020102;28;20486;-72
2023/07/13 08:31:13;;;;;;;3.87;1.70;;;22.00;47.40;;;;;;5022250;28;20817;-72
2023/07/13 08:34:00;;;;;;;14.53;1.90;;;22.00;43.60;;;;;;5028664;28;20472;-72
2023/07/13 08:36:45;;;;;;;5.50;2.13;;;21.90;39.90;;;;;;5023841;28;20419;-72
2023/07/13 08:39:31;;;;;;;5.03;1.90;;;22.00;46.50;;;;;;5027862;28;20495;-72
2023/07/13 08:42:29;;;;;;;7.37;2.07;;;22.00;43.90;;;;;;5027978;28;20424;-72
2023/07/13 08:45:21;;;;;;;10.30;2.10;;;22.10;42.30;;;;;;5023614;28;20428;-72
2023/07/13 08:48:12;;;;;;;3.87;1.63;;;22.20;45.90;;;;;;5020612;28;21020;-72
2023/07/13 08:51:05;;;;;;;2.97;1.77;;;22.40;50.10;;;;;;5025883;28;20498;-72
2023/07/13 08:53:55;;;;;;;8.10;2.07;;;22.70;48.80;;;;;;5027939;28;20463;-72
2023/07/13 08:56:40;;;;;;;4.43;1.73;;;22.90;39.50;;;;;;5023245;28;20954;-72
2023/07/13 08:59:28;;;;;;;5.70;2.00;;;22.90;36.30;;;;;;5023692;28;22376;-72
2023/07/13 09:02:26;;;;;;;4.50;1.60;;;22.90;36.20;;;;;;5030136;28;20926;-72
2023/07/13 09:05:16;;;;;;;5.70;1.90;;;22.90;33.70;;;;;;5026582;28;20428;-72
2023/07/13 09:08:24;;;;;;;6.03;2.23;;;22.80;35.70;;;;;;5022447;28;20452;-72
2023/07/13 09:11:27;;;;;;;8.07;1.60;;;22.70;35.10;;;;;;5022938;28;20496;-72
2023/07/13 09:14:34;;;;;;;7.53;2.10;;;22.80;39.20;;;;;;5022407;28;20439;-73
2023/07/13 09:17:23;;;;;;;11.20;1.87;;;22.70;33.60;;;;;;5023805;28;20449;-72
2023/07/13 09:20:24;;;;;;;9.30;1.73;;;22.70;33.30;;;;;;5024785;28;20477;-72
2023/07/13 09:23:17;;;;;;;7.13;1.97;;;22.70;33.40;;;;;;5025347;28;20513;-72
2023/07/13 09:26:07;;;;;;;5.40;1.80;;;22.70;33.90;;;;;;5022481;28;20471;-72
2023/07/13 09:28:57;;;;;;;6.63;1.80;;;22.80;38.50;;;;;;5023284;28;20420;-72
2023/07/13 09:31:47;;;;;;;6.87;1.50;;;22.80;30.00;;;;;;5023936;28;20420;-72
2023/07/13 09:34:34;;;;;;;5.43;1.60;;;22.80;30.80;;;;;;5024638;28;20810;-72
2023/07/13 09:37:22;;;;;;;5.03;1.80;;;23.00;33.90;;;;;;5022629;28;20580;-72
2023/07/13 09:40:22;;;;;;;5.90;1.47;;;23.20;29.00;;;;;;5023988;28;20500;-72
2023/07/13 09:43:11;;;;;;;6.60;2.10;;;23.30;35.30;;;;;;5026396;28;20442;-72
2023/07/13 09:45:57;;;;;;;5.17;2.10;;;23.50;30.30;;;;;;5023933;28;21062;-72
2023/07/13 09:48:43;;;;;;;5.87;1.47;;;23.60;24.90;;;;;;5025058;28;20479;-72
2023/07/13 09:51:29;;;;;;;5.17;1.40;;;23.60;24.40;;;;;;5025799;28;20448;-72
2023/07/13 09:54:20;;;;;;;8.13;1.60;;;23.60;27.40;;;;;;5027693;28;20435;-72
2023/07/13 09:57:14;;;;;;;3.60;1.33;;;23.60;25.40;;;;;;5025412;28;20499;-73
2023/07/13 10:00:00;;;;;;;4.50;2.10;;;23.50;26.70;;;;;;5025952;28;20440;-72
2023/07/13 10:02:45;;;;;;;5.03;1.53;;;23.40;28.70;;;;;;5023981;28;20992;-72
2023/07/13 10:05:39;;;;;;;6.80;1.67;;;23.10;25.40;;;;;;5025233;28;20517;-72
2023/07/13 10:08:27;;;;;;;5.63;1.60;;;22.90;24.70;;;;;;5019478;28;20969;-72
2023/07/13 10:11:18;;;;;;;6.00;1.77;;;22.90;26.70;;;;;;5022370;28;21017;-72
2023/07/13 10:14:13;;;;;;;12.20;2.30;;;23.00;27.30;;;;;;5020913;28;20929;-72
2023/07/13 10:17:02;;;;;;;12.43;1.67;;;23.00;27.60;;;;;;5022463;28;20463;-72
2023/07/13 10:19:49;;;;;;;3.40;1.50;;;23.10;29.00;;;;;;5024022;28;20834;-72
2023/07/13 10:22:52;;;;;;;3.60;1.33;;;23.30;34.20;;;;;;5025281;28;20458;-72
2023/07/13 10:25:41;;;;;;;3.40;1.30;;;23.40;29.40;;;;;;5027037;28;21222;-72
2023/07/13 10:28:30;;;;;;;7.27;1.67;;;23.40;27.10;;;;;;5024399;28;20917;-72
2023/07/13 10:31:17;;;;;;;15.00;1.80;;;23.40;27.40;;;;;;5026109;28;20433;-72
2023/07/13 10:34:05;;;;;;;6.33;1.70;;;23.30;25.50;;;;;;5026245;28;20472;-72
2023/07/13 10:36:52;;;;;;;5.80;1.80;;;23.30;22.80;;;;;;5022892;28;20508;-71
2023/07/13 10:39:39;;;;;;;3.90;1.73;;;23.20;22.80;;;;;;5026778;28;20471;-71
2023/07/13 10:42:29;;;;;;;3.63;1.40;;;23.30;25.70;;;;;;5022726;28;20542;-72
2023/07/13 10:45:17;;;;;;;5.07;1.63;;;23.40;25.30;;;;;;5023345;28;20786;-72
2023/07/13 10:48:05;;;;;;;5.83;1.40;;;23.30;22.40;;;;;;5025346;28;20451;-72
2023/07/13 10:50:54;;;;;;;5.30;1.60;;;23.30;22.80;;;;;;5025283;28;21073;-72
2023/07/13 10:53:40;;;;;;;6.33;1.60;;;23.20;19.00;;;;;;5024807;28;20469;-72
2023/07/13 10:56:30;;;;;;;3.63;1.23;;;23.20;20.60;;;;;;5025915;28;20437;-72
2023/07/13 10:59:19;;;;;;;9.20;1.50;;;23.10;17.50;;;;;;5023375;28;20533;-72
2023/07/13 11:02:16;;;;;;;4.00;1.60;;;23.10;18.90;;;;;;5024116;28;20449;-72
2023/07/13 11:05:26;;;;;;;2.63;1.30;;;23.10;19.30;;;;;;5023752;28;21066;-72
2023/07/13 11:08:20;;;;;;;5.20;1.33;;;23.00;18.10;;;;;;5024732;28;20720;-72
2023/07/13 11:11:35;;;;;;;2.70;1.00;;;23.10;19.60;;;;;;5023714;28;20423;-71
2023/07/13 11:14:35;;;;;;;7.03;1.90;;;23.20;20.90;;;;;;5024789;28;20473;-72
2023/07/13 11:17:36;;;;;;;3.10;1.13;;;23.50;22.80;;;;;;5020617;28;20819;-72
2023/07/13 11:20:42;;;;;;;4.43;1.50;;;23.80;21.10;;;;;;5028051;28;20535;-72
2023/07/13 11:23:33;;;;;;;3.20;1.50;;;23.90;19.50;;;;;;5023541;28;20491;-72
2023/07/13 11:26:41;;;;;;;3.17;1.13;;;24.00;21.10;;;;;;5025610;28;20565;-72
2023/07/13 11:29:33;;;;;;;4.97;1.70;;;24.30;20.40;;;;;;5026308;28;20448;-72
2023/07/13 11:32:26;;;;;;;4.53;1.80;;;24.20;19.10;;;;;;5021542;28;21618;-72
2023/07/13 11:35:17;;;;;;;5.37;1.50;;;24.10;17.60;;;;;;5027505;28;20448;-72
2023/07/13 11:38:09;;;;;;;3.90;1.60;;;24.00;18.20;;;;;;5020627;28;21196;-72
2023/07/13 11:40:56;;;;;;;3.50;1.47;;;24.10;19.30;;;;;;5020189;28;20449;-72
2023/07/13 11:43:42;;;;;;;2.33;1.10;;;24.10;19.20;;;;;;5022509;28;20468;-72
2023/07/13 11:46:28;;;;;;;5.13;1.50;;;24.10;19.30;;;;;;5016715;28;20547;-73
2023/07/13 11:49:17;;;;;;;8.63;2.10;;;24.20;18.40;;;;;;5023213;28;21020;-72
2023/07/13 11:52:03;;;;;;;4.40;1.80;;;24.30;16.70;;;;;;5022801;28;20779;-72
2023/07/13 11:54:55;;;;;;;3.47;1.60;;;24.50;16.30;;;;;;5026432;28;20915;-72
2023/07/13 11:57:43;;;;;;;3.20;1.30;;;24.70;16.50;;;;;;5025224;28;20441;-72
2023/07/13 12:00:33;;;;;;;4.37;2.00;;;25.00;17.20;;;;;;5019255;28;20530;-72
2023/07/13 12:03:25;;;;;;;5.00;1.47;;;25.20;14.20;;;;;;5030595;28;20555;-72
2023/07/13 12:06:33;;;;;;;4.00;1.50;;;25.10;15.00;;;;;;5025295;28;20856;-72
2023/07/13 12:09:20;;;;;;;2.90;1.30;;;25.10;14.50;;;;;;5030743;28;20460;-72
2023/07/13 12:12:12;;;;;;;4.57;1.63;;;25.10;16.20;;;;;;5022666;28;20432;-72
2023/07/13 12:14:58;;;;;;;5.13;1.70;;;25.00;15.50;;;;;;5022443;28;20465;-72
2023/07/13 12:17:43;;;;;;;14.97;1.73;;;24.80;14.50;;;;;;5027121;28;20471;-72
2023/07/13 12:20:37;;;;;;;2.90;1.40;;;24.50;14.00;;;;;;5026581;28;20562;-72
2023/07/13 12:23:26;;;;;;;5.57;1.60;;;24.50;16.20;;;;;;5026058;28;20551;-73
2023/07/13 12:26:13;;;;;;;4.90;1.23;;;24.50;16.50;;;;;;5027767;28;20906;-72
2023/07/13 12:29:05;;;;;;;6.73;1.47;;;24.50;14.80;;;;;;5031843;28;20447;-72
2023/07/13 12:31:52;;;;;;;9.67;1.53;;;24.50;15.10;;;;;;5024872;28;20490;-72
2023/07/13 12:34:52;;;;;;;3.67;1.90;;;24.40;15.10;;;;;;5028879;28;20464;-73
2023/07/13 12:37:38;;;;;;;6.00;1.50;;;24.40;15.70;;;;;;5028288;28;20452;-72
2023/07/13 12:40:29;;;;;;;2.63;1.13;;;24.50;15.40;;;;;;5021663;28;20589;-72
2023/07/13 12:43:16;;;;;;;5.67;1.20;;;24.50;15.30;;;;;;5028085;28;20480;-72
2023/07/13 12:46:05;;;;;;;2.93;1.30;;;24.80;14.90;;;;;;5027054;28;20448;-73
2023/07/13 12:48:53;;;;;;;3.90;1.90;;;25.10;14.70;;;;;;5027476;28;20907;-72
2023/07/13 12:51:39;;;;;;;4.50;1.60;;;25.30;15.80;;;;;;5020238;28;21132;-72
2023/07/13 12:54:25;;;;;;;2.17;0.93;;;25.40;12.80;;;;;;5026611;28;20456;-73
2023/07/13 12:57:17;;;;;;;4.40;1.60;;;25.30;13.20;;;;;;5027961;28;20446;-73
2023/07/13 13:00:05;;;;;;;4.90;1.73;;;25.20;12.20;;;;;;5019890;28;20476;-72
2023/07/13 13:02:53;;;;;;;8.63;1.67;;;25.20;14.20;;;;;;5020150;28;20572;-73
2023/07/13 13:05:39;;;;;;;4.10;1.37;;;25.10;13.90;;;;;;5018997;28;20948;-73
2023/07/13 13:08:24;;;;;;;3.53;1.13;;;24.90;14.00;;;;;;5023140;28;20449;-73
2023/07/13 13:11:10;;;;;;;4.00;1.50;;;24.80;14.40;;;;;;5023667;28;20496;-73
2023/07/13 13:13:55;;;;;;;5.47;1.73;;;24.70;14.80;;;;;;5023046;28;20968;-74
2023/07/13 13:16:49;;;;;;;2.77;1.10;;;24.80;14.80;;;;;;5026535;28;20812;-74
2023/07/13 13:19:36;;;;;;;6.80;1.83;;;24.70;14.70;;;;;;5023820;28;20468;-75
2023/07/13 13:22:21;;;;;;;5.73;1.60;;;24.60;14.60;;;;;;5020483;28;20812;-74
2023/07/13 13:25:10;;;;;;;3.97;1.40;;;24.50;15.30;;;;;;5023960;28;20448;-75
2023/07/13 13:27:56;;;;;;;5.37;1.53;;;24.50;16.70;;;;;;5026189;28;20477;-74
2023/07/13 13:30:41;;;;;;;5.70;1.73;;;24.50;16.90;;;;;;5026680;28;20419;-75
2023/07/13 13:33:27;;;;;;;5.43;1.17;;;24.50;16.30;;;;;;5022794;28;20470;-74
2023/07/13 13:36:19;;;;;;;6.07;1.60;;;24.50;17.00;;;;;;5020462;28;20531;-75
2023/07/13 13:39:17;;;;;;;4.30;1.73;;;24.70;16.00;;;;;;5022518;28;20584;-75
2023/07/13 13:42:02;;;;;;;4.53;1.40;;;24.70;16.70;;;;;;5022649;28;20517;-74
2023/07/13 13:44:48;;;;;;;4.93;2.00;;;24.70;16.40;;;;;;5026436;28;20441;-74
2023/07/13 13:47:35;;;;;;;8.60;1.60;;;24.50;17.00;;;;;;5025348;28;20558;-74
2023/07/13 13:50:24;;;;;;;4.70;1.57;;;24.50;16.30;;;;;;5026049;28;20456;-75
2023/07/13 13:53:13;;;;;;;5.90;1.60;;;24.30;17.00;;;;;;5023264;28;20466;-74
2023/07/13 13:55:59;;;;;;;3.30;1.63;;;24.30;17.90;;;;;;5021600;28;20453;-75
2023/07/13 13:58:44;;;;;;;5.20;1.60;;;24.30;17.40;;;;;;5021162;28;20576;-74
2023/07/13 14:01:31;;;;;;;3.20;1.40;;;24.30;18.50;;;;;;5019814;28;20489;-74
2023/07/13 14:04:19;;;;;;;4.37;1.50;;;24.40;16.40;;;;;;5023692;28;20958;-74
2023/07/13 14:07:05;;;;;;;8.00;1.40;;;24.50;16.90;;;;;;5023797;28;20455;-74
2023/07/13 14:09:53;;;;;;;8.63;1.53;;;24.50;18.60;;;;;;5019678;28;20577;-74
2023/07/13 14:12:38;;;;;;;4.77;1.50;;;24.50;18.60;;;;;;5020731;28;20522;-74
2023/07/13 14:15:27;;;;;;;9.83;1.50;;;24.30;17.70;;;;;;5025141;28;20497;-74
2023/07/13 14:18:17;;;;;;;5.30;1.57;;;24.20;17.00;;;;;;5016096;28;20496;-73
2023/07/13 14:21:02;;;;;;;5.93;1.87;;;24.20;18.40;;;;;;5019481;28;20670;-73
2023/07/13 14:23:50;;;;;;;4.30;1.47;;;24.30;19.20;;;;;;5022349;28;21172;-73
2023/07/13 14:26:38;;;;;;;6.27;1.83;;;24.50;18.60;;;;;;5022071;28;21210;-73
2023/07/13 14:29:25;;;;;;;6.60;1.80;;;24.60;18.70;;;;;;5020878;28;20483;-73
2023/07/13 14:32:12;;;;;;;8.03;1.73;;;24.60;18.20;;;;;;5023178;28;20741;-73